sensor_id;sensor_type;location;lat;lon;timestamp;temperature;humidity
7159;DHT22;63175;52.374;13.132;2023-06-22T00:00:12;23.30;99.90
7159;DHT22;63175;52.374;13.132;2023-06-22T00:02:40;23.30;99.90
7159;DHT22;63175;52.374;13.132;2023-06-22T00:05:07;23.30;99.90
7159;DHT22;63175;52.374;13.132;2023-06-22T00:07:34;23.20;99.90
7159;DHT22;63175;52.374;13.132;2023-06-22T00:10:01;23.20;99.90
7159;DHT22;63175;52.374;13.132;2023-06-22T00:12:28;23.20;99.90
7159;DHT22;63175;52.374;13.132;2023-06-22T00:14:55;23.10;99.90
7159;DHT22;63175;52.374;13.132;2023-06-22T00:17:21;23.10;99.90
7159;DHT22;63175;52.374;13.132;2023-06-22T00:19:50;23.10;99.90
7159;DHT22;63175;52.374;13.132;2023-06-22T00:22:19;23.10;99.90
7159;DHT22;63175;52.374;13.132;2023-06-22T00:24:54;23.10;99.90
7159;DHT22;63175;52.374;13.132;2023-06-22T00:27:21;23.00;99.90
7159;DHT22;63175;52.374;13.132;2023-06-22T00:29:48;23.00;99.90
7159;DHT22;63175;52.374;13.132;2023-06-22T00:32:15;23.00;99.90
7159;DHT22;63175;52.374;13.132;2023-06-22T00:34:42;23.00;99.90
7159;DHT22;63175;52.374;13.132;2023-06-22T00:37:11;23.00;99.90
7159;DHT22;63175;52.374;13.132;2023-06-22T00:39:37;23.00;99.90
7159;DHT22;63175;52.374;13.132;2023-06-22T00:42:05;23.00;99.90
7159;DHT22;63175;52.374;13.132;2023-06-22T00:44:32;23.00;99.90
7159;DHT22;63175;52.374;13.132;2023-06-22T00:46:58;23.00;99.90
7159;DHT22;63175;52.374;13.132;2023-06-22T00:49:26;23.00;99.90
7159;DHT22;63175;52.374;13.132;2023-06-22T00:51:53;23.00;99.90
7159;DHT22;63175;52.374;13.132;2023-06-22T00:54:22;23.00;99.90
7159;DHT22;63175;52.374;13.132;2023-06-22T00:56:50;23.00;99.90
7159;DHT22;63175;52.374;13.132;2023-06-22T00:59:18;23.00;99.90
7159;DHT22;63175;52.374;13.132;2023-06-22T01:01:45;23.00;99.90
7159;DHT22;63175;52.374;13.132;2023-06-22T01:04:12;23.00;99.90
7159;DHT22;63175;52.374;13.132;2023-06-22T01:06:52;23.00;99.90
7159;DHT22;63175;52.374;13.132;2023-06-22T01:09:26;23.00;99.90
7159;DHT22;63175;52.374;13.132;2023-06-22T01:11:57;23.00;99.90
7159;DHT22;63175;52.374;13.132;2023-06-22T01:14:30;22.90;99.90
7159;DHT22;63175;52.374;13.132;2023-06-22T01:16:59;22.90;99.90
7159;DHT22;63175;52.374;13.132;2023-06-22T01:19:37;22.90;99.90
7159;DHT22;63175;52.374;13.132;2023-06-22T01:22:06;22.90;99.90
7159;DHT22;63175;52.374;13.132;2023-06-22T01:24:51;22.90;99.90
7159;DHT22;63175;52.374;13.132;2023-06-22T01:27:40;22.90;99.90
7159;DHT22;63175;52.374;13.132;2023-06-22T01:30:14;22.80;99.90
7159;DHT22;63175;52.374;13.132;2023-06-22T01:32:43;22.80;99.90
7159;DHT22;63175;52.374;13.132;2023-06-22T01:35:10;22.80;99.90
7159;DHT22;63175;52.374;13.132;2023-06-22T01:37:39;22.80;99.90
7159;DHT22;63175;52.374;13.132;2023-06-22T01:40:07;22.80;99.90
7159;DHT22;63175;52.374;13.132;2023-06-22T01:42:35;22.80;99.90
7159;DHT22;63175;52.374;13.132;2023-06-22T01:45:04;22.80;99.90
7159;DHT22;63175;52.374;13.132;2023-06-22T01:47:33;22.80;99.90
7159;DHT22;63175;52.374;13.132;2023-06-22T01:50:01;22.80;99.90
7159;DHT22;63175;52.374;13.132;2023-06-22T01:52:28;22.70;99.90
7159;DHT22;63175;52.374;13.132;2023-06-22T01:54:55;22.70;99.90
7159;DHT22;63175;52.374;13.132;2023-06-22T01:57:23;22.70;99.90
7159;DHT22;63175;52.374;13.132;2023-06-22T01:59:58;22.70;99.90
7159;DHT22;63175;52.374;13.132;2023-06-22T02:02:31;22.70;99.90
7159;DHT22;63175;52.374;13.132;2023-06-22T02:05:03;22.70;99.90
7159;DHT22;63175;52.374;13.132;2023-06-22T02:07:34;22.70;99.90
7159;DHT22;63175;52.374;13.132;2023-06-22T02:10:04;22.60;99.90
7159;DHT22;63175;52.374;13.132;2023-06-22T02:12:33;22.60;99.90
7159;DHT22;63175;52.374;13.132;2023-06-22T02:15:01;22.60;99.90
7159;DHT22;63175;52.374;13.132;2023-06-22T02:17:28;22.60;99.90
7159;DHT22;63175;52.374;13.132;2023-06-22T02:20:02;22.60;99.90
7159;DHT22;63175;52.374;13.132;2023-06-22T02:22:34;22.50;99.90
7159;DHT22;63175;52.374;13.132;2023-06-22T02:25:01;22.50;99.90
7159;DHT22;63175;52.374;13.132;2023-06-22T02:27:27;22.50;99.90
7159;DHT22;63175;52.374;13.132;2023-06-22T02:29:54;22.50;99.90
7159;DHT22;63175;52.374;13.132;2023-06-22T02:32:21;22.50;99.90
7159;DHT22;63175;52.374;13.132;2023-06-22T02:34:48;22.50;99.90
7159;DHT22;63175;52.374;13.132;2023-06-22T02:37:16;22.50;99.90
7159;DHT22;63175;52.374;13.132;2023-06-22T02:39:43;22.50;99.90
7159;DHT22;63175;52.374;13.132;2023-06-22T02:42:10;22.50;99.90
7159;DHT22;63175;52.374;13.132;2023-06-22T02:44:37;22.40;99.90
7159;DHT22;63175;52.374;13.132;2023-06-22T02:47:05;22.40;99.90
7159;DHT22;63175;52.374;13.132;2023-06-22T02:49:31;22.40;99.90
7159;DHT22;63175;52.374;13.132;2023-06-22T02:51:58;22.30;99.90
7159;DHT22;63175;52.374;13.132;2023-06-22T02:54:26;22.30;99.90
7159;DHT22;63175;52.374;13.132;2023-06-22T02:56:53;22.30;99.90
7159;DHT22;63175;52.374;13.132;2023-06-22T02:59:20;22.30;99.90
7159;DHT22;63175;52.374;13.132;2023-06-22T03:01:49;22.30;99.90
7159;DHT22;63175;52.374;13.132;2023-06-22T03:04:16;22.30;99.90
7159;DHT22;63175;52.374;13.132;2023-06-22T03:06:43;22.30;99.90
7159;DHT22;63175;52.374;13.132;2023-06-22T03:09:09;22.30;99.90
7159;DHT22;63175;52.374;13.132;2023-06-22T03:11:38;22.30;99.90
7159;DHT22;63175;52.374;13.132;2023-06-22T03:14:04;22.20;99.90
7159;DHT22;63175;52.374;13.132;2023-06-22T03:16:31;22.20;99.90
7159;DHT22;63175;52.374;13.132;2023-06-22T03:18:58;22.20;99.90
7159;DHT22;63175;52.374;13.132;2023-06-22T03:21:27;22.20;99.90
7159;DHT22;63175;52.374;13.132;2023-06-22T03:23:54;22.20;99.90
7159;DHT22;63175;52.374;13.132;2023-06-22T03:26:21;22.20;99.90
7159;DHT22;63175;52.374;13.132;2023-06-22T03:28:53;22.20;99.90
7159;DHT22;63175;52.374;13.132;2023-06-22T03:31:20;22.20;99.90
7159;DHT22;63175;52.374;13.132;2023-06-22T03:33:47;22.10;99.90
7159;DHT22;63175;52.374;13.132;2023-06-22T03:36:15;22.10;99.90
7159;DHT22;63175;52.374;13.132;2023-06-22T03:38:44;22.10;99.90
7159;DHT22;63175;52.374;13.132;2023-06-22T03:41:11;22.10;99.90
7159;DHT22;63175;52.374;13.132;2023-06-22T03:43:38;22.10;99.90
7159;DHT22;63175;52.374;13.132;2023-06-22T03:46:06;22.10;99.90
7159;DHT22;63175;52.374;13.132;2023-06-22T03:48:33;22.10;99.90
7159;DHT22;63175;52.374;13.132;2023-06-22T03:51:00;22.10;99.90
7159;DHT22;63175;52.374;13.132;2023-06-22T03:53:28;22.10;99.90
7159;DHT22;63175;52.374;13.132;2023-06-22T03:55:55;22.10;99.90
7159;DHT22;63175;52.374;13.132;2023-06-22T03:58:22;22.10;99.90
7159;DHT22;63175;52.374;13.132;2023-06-22T04:00:50;22.10;99.90
7159;DHT22;63175;52.374;13.132;2023-06-22T04:03:19;22.10;99.90
7159;DHT22;63175;52.374;13.132;2023-06-22T04:05:46;22.10;99.90
7159;DHT22;63175;52.374;13.132;2023-06-22T04:08:13;22.10;99.90
7159;DHT22;63175;52.374;13.132;2023-06-22T04:10:41;22.10;99.90
7159;DHT22;63175;52.374;13.132;2023-06-22T04:13:22;22.10;99.90
7159;DHT22;63175;52.374;13.132;2023-06-22T04:16:04;22.10;99.90
7159;DHT22;63175;52.374;13.132;2023-06-22T04:28:33;22.10;99.90
7159;DHT22;63175;52.374;13.132;2023-06-22T04:31:05;22.10;99.90
7159;DHT22;63175;52.374;13.132;2023-06-22T04:33:40;22.00;99.90
7159;DHT22;63175;52.374;13.132;2023-06-22T04:36:23;22.10;99.90
7159;DHT22;63175;52.374;13.132;2023-06-22T04:39:06;22.10;99.90
7159;DHT22;63175;52.374;13.132;2023-06-22T04:41:47;22.20;99.90
7159;DHT22;63175;52.374;13.132;2023-06-22T04:47:46;22.20;99.90
7159;DHT22;63175;52.374;13.132;2023-06-22T04:50:28;22.20;99.90
7159;DHT22;63175;52.374;13.132;2023-06-22T04:53:10;22.20;99.90
7159;DHT22;63175;52.374;13.132;2023-06-22T04:55:51;22.20;99.90
7159;DHT22;63175;52.374;13.132;2023-06-22T04:58:32;22.30;99.90
7159;DHT22;63175;52.374;13.132;2023-06-22T05:01:17;22.40;99.90
7159;DHT22;63175;52.374;13.132;2023-06-22T05:04:30;22.40;99.90
7159;DHT22;63175;52.374;13.132;2023-06-22T05:07:12;22.50;99.90
7159;DHT22;63175;52.374;13.132;2023-06-22T05:09:53;22.50;99.90
7159;DHT22;63175;52.374;13.132;2023-06-22T05:12:20;22.50;99.90
7159;DHT22;63175;52.374;13.132;2023-06-22T05:15:01;22.60;99.90
7159;DHT22;63175;52.374;13.132;2023-06-22T05:17:42;22.70;99.90
7159;DHT22;63175;52.374;13.132;2023-06-22T05:27:07;23.00;99.90
7159;DHT22;63175;52.374;13.132;2023-06-22T05:29:49;23.10;99.90
7159;DHT22;63175;52.374;13.132;2023-06-22T05:32:24;23.10;99.90
7159;DHT22;63175;52.374;13.132;2023-06-22T05:35:07;23.20;99.90
7159;DHT22;63175;52.374;13.132;2023-06-22T05:37:48;23.30;99.90
7159;DHT22;63175;52.374;13.132;2023-06-22T05:40:28;23.30;99.90
7159;DHT22;63175;52.374;13.132;2023-06-22T05:43:15;23.30;99.90
7159;DHT22;63175;52.374;13.132;2023-06-22T05:45:56;23.40;99.90
7159;DHT22;63175;52.374;13.132;2023-06-22T05:48:37;23.50;99.90
7159;DHT22;63175;52.374;13.132;2023-06-22T05:51:06;23.50;99.90
7159;DHT22;63175;52.374;13.132;2023-06-22T05:53:51;23.50;99.90
7159;DHT22;63175;52.374;13.132;2023-06-22T05:56:35;23.40;99.90
7159;DHT22;63175;52.374;13.132;2023-06-22T06:02:44;23.50;99.90
7159;DHT22;63175;52.374;13.132;2023-06-22T06:05:27;23.60;99.90
7159;DHT22;63175;52.374;13.132;2023-06-22T06:08:11;23.70;99.90
7159;DHT22;63175;52.374;13.132;2023-06-22T06:10:53;23.70;99.90
7159;DHT22;63175;52.374;13.132;2023-06-22T06:16:00;23.90;99.90
7159;DHT22;63175;52.374;13.132;2023-06-22T06:18:28;24.10;99.90
7159;DHT22;63175;52.374;13.132;2023-06-22T06:20:55;24.30;99.90
7159;DHT22;63175;52.374;13.132;2023-06-22T06:23:23;24.40;99.90
7159;DHT22;63175;52.374;13.132;2023-06-22T06:25:49;24.50;99.90
7159;DHT22;63175;52.374;13.132;2023-06-22T06:28:16;24.60;99.90
7159;DHT22;63175;52.374;13.132;2023-06-22T06:30:43;24.60;99.90
7159;DHT22;63175;52.374;13.132;2023-06-22T06:33:12;24.60;99.90
7159;DHT22;63175;52.374;13.132;2023-06-22T06:35:40;24.60;99.90
7159;DHT22;63175;52.374;13.132;2023-06-22T06:38:07;24.70;99.90
7159;DHT22;63175;52.374;13.132;2023-06-22T06:40:34;24.80;99.90
7159;DHT22;63175;52.374;13.132;2023-06-22T06:43:01;24.90;99.90
7159;DHT22;63175;52.374;13.132;2023-06-22T06:45:28;25.00;99.90
7159;DHT22;63175;52.374;13.132;2023-06-22T06:47:56;25.10;99.90
7159;DHT22;63175;52.374;13.132;2023-06-22T06:50:23;25.30;99.90
7159;DHT22;63175;52.374;13.132;2023-06-22T06:52:51;25.50;99.90
7159;DHT22;63175;52.374;13.132;2023-06-22T06:55:18;25.50;99.90
7159;DHT22;63175;52.374;13.132;2023-06-22T06:57:46;25.50;99.40
7159;DHT22;63175;52.374;13.132;2023-06-22T07:00:14;25.60;98.70
7159;DHT22;63175;52.374;13.132;2023-06-22T07:02:43;25.70;98.00
7159;DHT22;63175;52.374;13.132;2023-06-22T07:05:11;25.70;96.20
7159;DHT22;63175;52.374;13.132;2023-06-22T07:07:38;25.80;95.80
7159;DHT22;63175;52.374;13.132;2023-06-22T07:10:07;26.00;95.50
7159;DHT22;63175;52.374;13.132;2023-06-22T07:12:34;26.20;95.20
7159;DHT22;63175;52.374;13.132;2023-06-22T07:15:03;26.30;94.30
7159;DHT22;63175;52.374;13.132;2023-06-22T07:17:30;26.40;93.70
7159;DHT22;63175;52.374;13.132;2023-06-22T07:19:57;26.50;92.80
7159;DHT22;63175;52.374;13.132;2023-06-22T07:22:24;26.60;92.10
7159;DHT22;63175;52.374;13.132;2023-06-22T07:24:51;26.60;91.30
7159;DHT22;63175;52.374;13.132;2023-06-22T07:27:19;26.60;90.50
7159;DHT22;63175;52.374;13.132;2023-06-22T07:29:46;26.50;90.40
7159;DHT22;63175;52.374;13.132;2023-06-22T07:32:13;26.60;90.40
7159;DHT22;63175;52.374;13.132;2023-06-22T07:34:40;26.50;89.40
7159;DHT22;63175;52.374;13.132;2023-06-22T07:37:08;26.50;89.80
7159;DHT22;63175;52.374;13.132;2023-06-22T07:39:35;26.50;89.50
7159;DHT22;63175;52.374;13.132;2023-06-22T07:42:03;26.50;89.90
7159;DHT22;63175;52.374;13.132;2023-06-22T07:44:32;26.50;90.00
7159;DHT22;63175;52.374;13.132;2023-06-22T07:46:58;26.40;89.60
7159;DHT22;63175;52.374;13.132;2023-06-22T07:49:25;26.40;89.20
7159;DHT22;63175;52.374;13.132;2023-06-22T07:51:52;26.30;89.70
7159;DHT22;63175;52.374;13.132;2023-06-22T07:54:19;26.20;90.00
7159;DHT22;63175;52.374;13.132;2023-06-22T07:56:46;26.30;90.10
7159;DHT22;63175;52.374;13.132;2023-06-22T07:59:13;26.40;90.20
7159;DHT22;63175;52.374;13.132;2023-06-22T08:01:42;26.40;90.10
7159;DHT22;63175;52.374;13.132;2023-06-22T08:04:09;26.60;90.20
7159;DHT22;63175;52.374;13.132;2023-06-22T08:06:36;26.70;90.10
7159;DHT22;63175;52.374;13.132;2023-06-22T08:09:03;26.70;89.60
7159;DHT22;63175;52.374;13.132;2023-06-22T08:11:29;26.70;89.40
7159;DHT22;63175;52.374;13.132;2023-06-22T08:13:56;26.70;88.90
7159;DHT22;63175;52.374;13.132;2023-06-22T08:16:24;26.80;88.50
7159;DHT22;63175;52.374;13.132;2023-06-22T08:18:52;26.80;87.50
7159;DHT22;63175;52.374;13.132;2023-06-22T08:21:19;26.80;87.20
7159;DHT22;63175;52.374;13.132;2023-06-22T08:23:45;26.90;86.80
7159;DHT22;63175;52.374;13.132;2023-06-22T08:26:12;26.80;85.60
7159;DHT22;63175;52.374;13.132;2023-06-22T08:28:39;26.80;85.40
7159;DHT22;63175;52.374;13.132;2023-06-22T08:31:06;26.80;85.90
7159;DHT22;63175;52.374;13.132;2023-06-22T08:33:33;26.90;85.60
7159;DHT22;63175;52.374;13.132;2023-06-22T08:36:02;27.00;85.00
7159;DHT22;63175;52.374;13.132;2023-06-22T08:38:31;27.10;84.50
7159;DHT22;63175;52.374;13.132;2023-06-22T08:40:58;27.10;82.20
7159;DHT22;63175;52.374;13.132;2023-06-22T08:43:25;27.10;81.90
7159;DHT22;63175;52.374;13.132;2023-06-22T08:45:52;27.20;81.10
7159;DHT22;63175;52.374;13.132;2023-06-22T08:48:19;27.30;80.50
7159;DHT22;63175;52.374;13.132;2023-06-22T08:50:46;27.40;78.50
7159;DHT22;63175;52.374;13.132;2023-06-22T08:53:14;27.50;78.00
7159;DHT22;63175;52.374;13.132;2023-06-22T08:55:41;27.70;78.30
7159;DHT22;63175;52.374;13.132;2023-06-22T08:58:07;28.00;77.50
7159;DHT22;63175;52.374;13.132;2023-06-22T09:00:34;28.10;74.10
7159;DHT22;63175;52.374;13.132;2023-06-22T09:03:01;28.10;73.10
7159;DHT22;63175;52.374;13.132;2023-06-22T09:05:28;28.10;70.50
7159;DHT22;63175;52.374;13.132;2023-06-22T09:07:56;28.10;70.40
7159;DHT22;63175;52.374;13.132;2023-06-22T09:10:25;28.00;68.80
7159;DHT22;63175;52.374;13.132;2023-06-22T09:12:52;27.90;67.70
7159;DHT22;63175;52.374;13.132;2023-06-22T09:15:19;27.80;68.70
7159;DHT22;63175;52.374;13.132;2023-06-22T09:17:46;27.80;69.70
7159;DHT22;63175;52.374;13.132;2023-06-22T09:20:13;27.80;70.60
7159;DHT22;63175;52.374;13.132;2023-06-22T09:22:40;27.80;70.50
7159;DHT22;63175;52.374;13.132;2023-06-22T09:25:07;27.90;70.40
7159;DHT22;63175;52.374;13.132;2023-06-22T09:27:36;27.90;69.80
7159;DHT22;63175;52.374;13.132;2023-06-22T09:30:04;27.90;70.10
7159;DHT22;63175;52.374;13.132;2023-06-22T09:32:32;28.00;70.40
7159;DHT22;63175;52.374;13.132;2023-06-22T09:35:02;27.90;70.70
7159;DHT22;63175;52.374;13.132;2023-06-22T09:37:28;28.00;71.40
7159;DHT22;63175;52.374;13.132;2023-06-22T09:39:55;28.20;71.20
7159;DHT22;63175;52.374;13.132;2023-06-22T09:42:22;28.10;70.80
7159;DHT22;63175;52.374;13.132;2023-06-22T09:44:50;28.00;71.00
7159;DHT22;63175;52.374;13.132;2023-06-22T09:47:17;28.00;71.50
7159;DHT22;63175;52.374;13.132;2023-06-22T09:49:44;27.90;72.20
7159;DHT22;63175;52.374;13.132;2023-06-22T09:52:11;27.80;71.70
7159;DHT22;63175;52.374;13.132;2023-06-22T09:54:38;27.80;72.30
7159;DHT22;63175;52.374;13.132;2023-06-22T09:57:05;27.80;72.40
7159;DHT22;63175;52.374;13.132;2023-06-22T09:59:31;27.80;72.80
7159;DHT22;63175;52.374;13.132;2023-06-22T10:02:00;27.80;72.50
7159;DHT22;63175;52.374;13.132;2023-06-22T10:04:26;27.70;71.40
7159;DHT22;63175;52.374;13.132;2023-06-22T10:06:54;27.60;71.70
7159;DHT22;63175;52.374;13.132;2023-06-22T10:09:21;27.60;72.20
7159;DHT22;63175;52.374;13.132;2023-06-22T10:11:48;27.60;72.40
7159;DHT22;63175;52.374;13.132;2023-06-22T10:14:14;27.50;72.90
7159;DHT22;63175;52.374;13.132;2023-06-22T10:16:42;27.60;73.30
7159;DHT22;63175;52.374;13.132;2023-06-22T10:19:10;27.70;73.10
7159;DHT22;63175;52.374;13.132;2023-06-22T10:21:37;28.10;72.70
7159;DHT22;63175;52.374;13.132;2023-06-22T10:24:04;28.80;71.60
7159;DHT22;63175;52.374;13.132;2023-06-22T10:26:32;29.40;69.60
7159;DHT22;63175;52.374;13.132;2023-06-22T10:28:59;29.90;67.30
7159;DHT22;63175;52.374;13.132;2023-06-22T10:31:27;30.30;64.60
7159;DHT22;63175;52.374;13.132;2023-06-22T10:33:54;30.60;63.30
7159;DHT22;63175;52.374;13.132;2023-06-22T10:36:22;30.90;62.30
7159;DHT22;63175;52.374;13.132;2023-06-22T10:38:49;31.20;61.40
7159;DHT22;63175;52.374;13.132;2023-06-22T10:41:18;31.30;60.40
7159;DHT22;63175;52.374;13.132;2023-06-22T10:43:45;31.50;58.30
7159;DHT22;63175;52.374;13.132;2023-06-22T10:46:12;31.50;57.50
7159;DHT22;63175;52.374;13.132;2023-06-22T10:48:39;31.50;57.50
7159;DHT22;63175;52.374;13.132;2023-06-22T10:51:06;31.60;57.10
7159;DHT22;63175;52.374;13.132;2023-06-22T10:53:34;31.50;56.90
7159;DHT22;63175;52.374;13.132;2023-06-22T10:56:01;31.40;57.20
7159;DHT22;63175;52.374;13.132;2023-06-22T10:58:28;31.30;57.30
7159;DHT22;63175;52.374;13.132;2023-06-22T11:00:55;31.40;57.60
7159;DHT22;63175;52.374;13.132;2023-06-22T11:03:21;31.40;57.80
7159;DHT22;63175;52.374;13.132;2023-06-22T11:05:48;31.50;57.70
7159;DHT22;63175;52.374;13.132;2023-06-22T11:08:15;31.70;57.20
7159;DHT22;63175;52.374;13.132;2023-06-22T11:10:44;32.10;56.90
7159;DHT22;63175;52.374;13.132;2023-06-22T11:13:11;32.40;56.30
7159;DHT22;63175;52.374;13.132;2023-06-22T11:15:38;32.60;55.90
7159;DHT22;63175;52.374;13.132;2023-06-22T11:18:05;32.80;55.60
7159;DHT22;63175;52.374;13.132;2023-06-22T11:20:33;33.10;54.10
7159;DHT22;63175;52.374;13.132;2023-06-22T11:23:04;33.20;54.60
7159;DHT22;63175;52.374;13.132;2023-06-22T11:25:31;33.30;53.80
7159;DHT22;63175;52.374;13.132;2023-06-22T11:28:01;33.40;53.60
7159;DHT22;63175;52.374;13.132;2023-06-22T11:30:28;33.00;53.00
7159;DHT22;63175;52.374;13.132;2023-06-22T11:32:56;33.30;53.00
7159;DHT22;63175;52.374;13.132;2023-06-22T11:35:23;33.30;52.80
7159;DHT22;63175;52.374;13.132;2023-06-22T11:37:50;33.30;52.90
7159;DHT22;63175;52.374;13.132;2023-06-22T11:40:17;33.30;52.20
7159;DHT22;63175;52.374;13.132;2023-06-22T11:42:44;33.30;51.80
7159;DHT22;63175;52.374;13.132;2023-06-22T11:45:12;33.30;52.00
7159;DHT22;63175;52.374;13.132;2023-06-22T11:47:39;33.40;52.00
7159;DHT22;63175;52.374;13.132;2023-06-22T11:50:07;33.40;51.30
7159;DHT22;63175;52.374;13.132;2023-06-22T11:52:34;33.50;51.10
7159;DHT22;63175;52.374;13.132;2023-06-22T11:55:02;33.50;50.70
7159;DHT22;63175;52.374;13.132;2023-06-22T11:57:32;33.60;49.60
7159;DHT22;63175;52.374;13.132;2023-06-22T11:59:59;33.50;49.20
7159;DHT22;63175;52.374;13.132;2023-06-22T12:02:27;33.40;49.60
7159;DHT22;63175;52.374;13.132;2023-06-22T12:04:54;33.50;49.90
7159;DHT22;63175;52.374;13.132;2023-06-22T12:07:21;33.50;49.90
7159;DHT22;63175;52.374;13.132;2023-06-22T12:09:48;33.40;49.40
7159;DHT22;63175;52.374;13.132;2023-06-22T12:12:15;33.30;49.70
7159;DHT22;63175;52.374;13.132;2023-06-22T12:14:42;33.20;49.90
7159;DHT22;63175;52.374;13.132;2023-06-22T12:17:09;33.20;50.00
7159;DHT22;63175;52.374;13.132;2023-06-22T12:19:37;33.10;50.00
7159;DHT22;63175;52.374;13.132;2023-06-22T12:22:04;33.10;50.20
7159;DHT22;63175;52.374;13.132;2023-06-22T12:24:31;33.20;49.50
7159;DHT22;63175;52.374;13.132;2023-06-22T12:26:58;33.20;49.90
7159;DHT22;63175;52.374;13.132;2023-06-22T12:29:24;33.30;50.00
7159;DHT22;63175;52.374;13.132;2023-06-22T12:31:51;33.40;50.10
7159;DHT22;63175;52.374;13.132;2023-06-22T12:34:18;33.50;49.40
7159;DHT22;63175;52.374;13.132;2023-06-22T12:36:47;33.60;48.70
7159;DHT22;63175;52.374;13.132;2023-06-22T12:39:14;33.60;48.70
7159;DHT22;63175;52.374;13.132;2023-06-22T12:41:41;33.60;48.20
7159;DHT22;63175;52.374;13.132;2023-06-22T12:44:07;33.70;47.80
7159;DHT22;63175;52.374;13.132;2023-06-22T12:46:34;33.70;47.50
7159;DHT22;63175;52.374;13.132;2023-06-22T12:49:03;33.60;47.60
7159;DHT22;63175;52.374;13.132;2023-06-22T12:51:30;33.60;47.90
7159;DHT22;63175;52.374;13.132;2023-06-22T12:53:58;33.70;48.30
7159;DHT22;63175;52.374;13.132;2023-06-22T12:56:25;33.90;47.80
7159;DHT22;63175;52.374;13.132;2023-06-22T12:58:52;33.90;47.60
7159;DHT22;63175;52.374;13.132;2023-06-22T13:01:19;34.00;47.40
7159;DHT22;63175;52.374;13.132;2023-06-22T13:03:46;34.00;47.50
7159;DHT22;63175;52.374;13.132;2023-06-22T13:06:13;34.20;48.20
7159;DHT22;63175;52.374;13.132;2023-06-22T13:08:40;34.30;47.00
7159;DHT22;63175;52.374;13.132;2023-06-22T13:11:08;34.30;47.10
7159;DHT22;63175;52.374;13.132;2023-06-22T13:13:35;34.40;46.70
7159;DHT22;63175;52.374;13.132;2023-06-22T13:16:02;34.50;46.90
7159;DHT22;63175;52.374;13.132;2023-06-22T13:18:28;34.50;46.60
7159;DHT22;63175;52.374;13.132;2023-06-22T13:20:55;34.60;46.70
7159;DHT22;63175;52.374;13.132;2023-06-22T13:23:23;34.50;45.90
7159;DHT22;63175;52.374;13.132;2023-06-22T13:25:50;34.30;45.80
7159;DHT22;63175;52.374;13.132;2023-06-22T13:28:18;34.30;46.30
7159;DHT22;63175;52.374;13.132;2023-06-22T13:30:46;34.30;46.10
7159;DHT22;63175;52.374;13.132;2023-06-22T13:33:13;34.40;46.20
7159;DHT22;63175;52.374;13.132;2023-06-22T13:35:40;34.30;45.90
7159;DHT22;63175;52.374;13.132;2023-06-22T13:38:08;34.50;46.30
7159;DHT22;63175;52.374;13.132;2023-06-22T13:40:35;34.70;46.20
7159;DHT22;63175;52.374;13.132;2023-06-22T13:43:03;34.90;45.70
7159;DHT22;63175;52.374;13.132;2023-06-22T13:45:31;35.10;45.80
7159;DHT22;63175;52.374;13.132;2023-06-22T13:47:58;35.30;45.30
7159;DHT22;63175;52.374;13.132;2023-06-22T13:50:25;35.40;45.10
7159;DHT22;63175;52.374;13.132;2023-06-22T13:52:52;35.40;44.50
7159;DHT22;63175;52.374;13.132;2023-06-22T13:55:19;35.40;44.70
7159;DHT22;63175;52.374;13.132;2023-06-22T13:57:46;35.50;44.80
7159;DHT22;63175;52.374;13.132;2023-06-22T14:00:14;35.70;44.80
7159;DHT22;63175;52.374;13.132;2023-06-22T14:02:42;35.80;44.10
7159;DHT22;63175;52.374;13.132;2023-06-22T14:05:09;35.90;44.00
7159;DHT22;63175;52.374;13.132;2023-06-22T14:07:36;35.80;43.80
7159;DHT22;63175;52.374;13.132;2023-06-22T14:10:04;35.50;43.70
7159;DHT22;63175;52.374;13.132;2023-06-22T14:12:31;35.50;43.90
7159;DHT22;63175;52.374;13.132;2023-06-22T14:14:58;35.50;44.20
7159;DHT22;63175;52.374;13.132;2023-06-22T14:17:25;35.70;43.90
7159;DHT22;63175;52.374;13.132;2023-06-22T14:19:53;35.80;43.80
7159;DHT22;63175;52.374;13.132;2023-06-22T14:22:21;35.90;43.90
7159;DHT22;63175;52.374;13.132;2023-06-22T14:24:48;36.10;43.70
7159;DHT22;63175;52.374;13.132;2023-06-22T14:27:15;36.20;43.00
7159;DHT22;63175;52.374;13.132;2023-06-22T14:29:42;36.20;43.30
7159;DHT22;63175;52.374;13.132;2023-06-22T14:32:09;36.30;43.60
7159;DHT22;63175;52.374;13.132;2023-06-22T14:34:36;36.30;43.60
7159;DHT22;63175;52.374;13.132;2023-06-22T14:37:07;36.40;43.60
7159;DHT22;63175;52.374;13.132;2023-06-22T14:39:35;36.40;43.30
7159;DHT22;63175;52.374;13.132;2023-06-22T14:42:02;36.50;43.00
7159;DHT22;63175;52.374;13.132;2023-06-22T14:44:29;36.50;42.40
7159;DHT22;63175;52.374;13.132;2023-06-22T14:46:56;36.50;42.90
7159;DHT22;63175;52.374;13.132;2023-06-22T14:49:23;36.50;42.80
7159;DHT22;63175;52.374;13.132;2023-06-22T14:51:50;36.50;42.80
7159;DHT22;63175;52.374;13.132;2023-06-22T14:54:18;36.40;43.00
7159;DHT22;63175;52.374;13.132;2023-06-22T14:56:45;36.30;43.20
7159;DHT22;63175;52.374;13.132;2023-06-22T14:59:12;36.20;43.20
7159;DHT22;63175;52.374;13.132;2023-06-22T15:01:39;36.10;43.10
7159;DHT22;63175;52.374;13.132;2023-06-22T15:04:06;35.80;43.00
7159;DHT22;63175;52.374;13.132;2023-06-22T15:06:33;35.60;43.50
7159;DHT22;63175;52.374;13.132;2023-06-22T15:08:59;35.30;43.80
7159;DHT22;63175;52.374;13.132;2023-06-22T15:11:28;35.10;44.00
7159;DHT22;63175;52.374;13.132;2023-06-22T15:13:58;34.80;44.40
7159;DHT22;63175;52.374;13.132;2023-06-22T15:16:25;34.70;44.90
7159;DHT22;63175;52.374;13.132;2023-06-22T15:18:52;34.50;44.70
7159;DHT22;63175;52.374;13.132;2023-06-22T15:21:18;34.40;45.10
7159;DHT22;63175;52.374;13.132;2023-06-22T15:23:46;34.30;45.70
7159;DHT22;63175;52.374;13.132;2023-06-22T15:26:12;34.20;45.90
7159;DHT22;63175;52.374;13.132;2023-06-22T15:28:41;34.10;46.10
7159;DHT22;63175;52.374;13.132;2023-06-22T15:31:08;34.00;45.90
7159;DHT22;63175;52.374;13.132;2023-06-22T15:33:35;33.80;46.00
7159;DHT22;63175;52.374;13.132;2023-06-22T15:36:02;33.70;46.30
7159;DHT22;63175;52.374;13.132;2023-06-22T15:38:31;33.50;46.90
7159;DHT22;63175;52.374;13.132;2023-06-22T15:40:58;33.40;47.10
7159;DHT22;63175;52.374;13.132;2023-06-22T15:43:25;33.20;47.40
7159;DHT22;63175;52.374;13.132;2023-06-22T15:45:53;33.10;47.70
7159;DHT22;63175;52.374;13.132;2023-06-22T15:48:20;32.90;47.80
7159;DHT22;63175;52.374;13.132;2023-06-22T15:50:47;32.80;48.10
7159;DHT22;63175;52.374;13.132;2023-06-22T15:53:14;32.70;48.30
7159;DHT22;63175;52.374;13.132;2023-06-22T15:55:41;32.50;48.50
7159;DHT22;63175;52.374;13.132;2023-06-22T15:58:08;32.50;48.70
7159;DHT22;63175;52.374;13.132;2023-06-22T16:00:35;32.40;48.90
7159;DHT22;63175;52.374;13.132;2023-06-22T16:03:03;32.50;49.40
7159;DHT22;63175;52.374;13.132;2023-06-22T16:05:30;32.40;49.30